Terminal Aerodrome Forecast
Issued by NWS

Current Version | Previous Version | Graphics & Text | Print | Product List | Glossary On
Versions: 1 2 3 4 5 6 7 8 9 10 11 12 13 14 15 16
000
FTUS41 KPBZ 182320
TAFHLG
TAF
KHLG 182320Z 1900/1924 03005KT P6SM BKN200
     FM191400 12012G22KT P6SM BKN150
     FM192100 13012G22KT 5SM -SHRA OVC035=

USA.gov is the U.S. government's official web portal to all federal, state and local government web resources and services.